createdAt,value
2022-12-01T00:01:02.252Z,82.90
2022-12-01T00:03:34.209Z,90.95
2022-12-01T00:06:06.229Z,97.10
2022-12-01T00:08:37.352Z,92.75
2022-12-01T00:11:05.978Z,99.25
2022-12-01T00:13:36.761Z,99.75
2022-12-01T00:16:19.803Z,99.72
2022-12-01T00:18:52.670Z,100.68
2022-12-01T00:21:25.993Z,94.15
2022-12-01T00:23:59.141Z,95.22
2022-12-01T00:26:30.137Z,97.15
2022-12-01T00:29:02.845Z,95.93
2022-12-01T00:31:35.305Z,90.85
2022-12-01T00:34:11.007Z,109.28
2022-12-01T00:36:41.809Z,107.82
2022-12-01T00:39:12.529Z,97.55
2022-12-01T00:41:42.354Z,97.07
2022-12-01T00:44:12.428Z,98.88
2022-12-01T00:46:44.827Z,104.05
2022-12-01T00:49:16.344Z,103.97
2022-12-01T00:51:46.169Z,97.20
2022-12-01T00:54:16.011Z,101.18
2022-12-01T00:56:45.825Z,102.50
2022-12-01T00:59:15.964Z,105.13
2022-12-01T01:01:48.564Z,102.22
2022-12-01T01:04:18.437Z,99.95
2022-12-01T01:06:48.551Z,114.82
2022-12-01T01:09:18.907Z,96.80
2022-12-01T01:11:48.726Z,110.88
2022-12-01T01:14:18.701Z,92.95
2022-12-01T01:16:51.661Z,106.13
2022-12-01T01:19:21.573Z,103.40
2022-12-01T01:21:51.401Z,101.07
2022-12-01T01:24:21.381Z,97.78
2022-12-01T01:26:51.253Z,99.60
2022-12-01T01:29:21.185Z,98.60
2022-12-01T01:31:53.608Z,116.80
2022-12-01T01:34:23.414Z,121.22
2022-12-01T01:36:53.494Z,114.40
2022-12-01T01:39:23.355Z,104.97
2022-12-01T01:41:53.235Z,113.40
2022-12-01T01:44:52.913Z,115.32
2022-12-01T01:47:29.948Z,106.18
2022-12-01T01:50:05.995Z,103.72
2022-12-01T01:52:36.739Z,112.60
2022-12-01T01:55:07.446Z,101.50
2022-12-01T01:57:37.941Z,100.47
2022-12-01T02:00:13.745Z,101.38
2022-12-01T02:02:49.132Z,91.50
2022-12-01T02:05:25.222Z,95.38
2022-12-01T02:07:58.259Z,97.85
2022-12-01T02:10:40.843Z,99.43
2022-12-01T02:13:19.322Z,96.50
2022-12-01T02:15:58.479Z,101.00
2022-12-01T02:18:41.192Z,110.65
2022-12-01T02:21:42.040Z,102.80
2022-12-01T02:25:00.679Z,102.07
2022-12-01T02:27:55.109Z,108.03
2022-12-01T02:30:39.758Z,104.72
2022-12-01T02:33:17.076Z,105.53
2022-12-01T02:35:52.040Z,103.53
2022-12-01T02:38:29.063Z,103.57
2022-12-01T02:41:06.327Z,105.70
2022-12-01T02:43:45.317Z,99.57
2022-12-01T02:46:25.242Z,99.07
2022-12-01T02:49:01.138Z,98.53
2022-12-01T02:51:34.782Z,107.90
2022-12-01T02:54:07.000Z,106.30
2022-12-01T02:56:36.833Z,95.90
2022-12-01T02:59:12.558Z,107.00
2022-12-01T03:02:06.380Z,94.68
2022-12-01T03:04:56.212Z,98.47
2022-12-01T03:07:50.815Z,95.30
2022-12-01T03:10:28.886Z,94.87
2022-12-01T03:13:12.767Z,95.82
2022-12-01T03:15:52.427Z,104.00
2022-12-01T03:18:35.209Z,103.80
2022-12-01T03:21:11.732Z,103.57
2022-12-01T03:23:47.148Z,93.80
2022-12-01T03:26:21.774Z,93.10
2022-12-01T03:28:58.169Z,101.85
2022-12-01T03:31:33.856Z,105.50
2022-12-01T03:34:12.630Z,102.70
2022-12-01T03:36:46.716Z,96.03
2022-12-01T03:39:24.018Z,93.93
2022-12-01T03:42:00.061Z,97.22
2022-12-01T03:44:36.109Z,87.60
2022-12-01T03:47:09.284Z,85.70
2022-12-01T03:49:42.905Z,95.90
2022-12-01T03:52:23.702Z,91.75
2022-12-01T03:55:07.883Z,93.22
2022-12-01T03:57:45.138Z,91.87
2022-12-01T04:00:18.539Z,95.70
2022-12-01T04:02:49.048Z,91.22
2022-12-01T04:05:25.314Z,100.05
2022-12-01T04:07:55.788Z,97.00
2022-12-01T04:10:25.838Z,91.68
2022-12-01T04:12:58.924Z,102.55
2022-12-01T04:15:29.921Z,99.03
2022-12-01T04:17:59.813Z,105.45
2022-12-01T04:20:32.212Z,97.03
2022-12-01T04:23:03.183Z,108.35
2022-12-01T04:25:33.041Z,98.75
2022-12-01T04:28:02.892Z,105.47
2022-12-01T04:30:32.714Z,102.10
2022-12-01T04:33:02.515Z,96.35
2022-12-01T04:35:34.911Z,108.05
2022-12-01T04:38:04.722Z,95.32
2022-12-01T04:40:34.555Z,94.20
2022-12-01T04:43:04.365Z,98.45
2022-12-01T04:45:34.147Z,94.00
2022-12-01T04:48:03.977Z,95.20
2022-12-01T04:50:36.450Z,92.93
2022-12-01T04:53:07.566Z,96.13
2022-12-01T04:55:41.075Z,92.50
2022-12-01T04:58:10.894Z,101.60
2022-12-01T05:00:41.022Z,93.22
2022-12-01T05:03:15.005Z,101.15
2022-12-01T05:05:47.767Z,92.93
2022-12-01T05:08:17.565Z,97.90
2022-12-01T05:10:47.490Z,95.80
2022-12-01T05:13:17.337Z,99.45
2022-12-01T05:15:47.170Z,100.75
2022-12-01T05:18:17.014Z,99.55
2022-12-01T05:20:58.739Z,95.90
2022-12-01T05:23:29.525Z,96.22
2022-12-01T05:25:59.829Z,99.00
2022-12-01T05:28:30.633Z,90.45
2022-12-01T05:31:01.155Z,89.35
2022-12-01T05:33:31.929Z,101.05
2022-12-01T05:36:04.358Z,103.45
2022-12-01T05:38:34.160Z,91.40
2022-12-01T05:41:03.998Z,101.10
2022-12-01T05:43:33.893Z,99.22
2022-12-01T05:46:03.793Z,95.03
2022-12-01T05:48:33.868Z,111.03
2022-12-01T05:51:11.822Z,113.38
2022-12-01T05:53:41.964Z,111.28
2022-12-01T05:56:12.266Z,118.15
2022-12-01T05:58:42.218Z,118.20
2022-12-01T06:01:12.059Z,122.63
2022-12-01T06:03:41.925Z,118.82
2022-12-01T06:06:14.342Z,115.78
2022-12-01T06:08:44.212Z,122.70
2022-12-01T06:11:14.216Z,123.60
2022-12-01T06:13:44.026Z,127.95
2022-12-01T06:16:13.910Z,122.40
2022-12-01T06:18:43.823Z,132.60
2022-12-01T06:21:16.248Z,132.35
2022-12-01T06:23:46.120Z,140.85
2022-12-01T06:26:15.947Z,134.30
2022-12-01T06:28:45.810Z,130.85
2022-12-01T06:31:16.617Z,128.35
2022-12-01T06:33:46.448Z,129.88
2022-12-01T06:36:19.193Z,140.88
2022-12-01T06:38:49.025Z,137.70
2022-12-01T06:41:18.863Z,145.95
2022-12-01T06:43:48.701Z,154.75
2022-12-01T06:46:18.670Z,141.57
2022-12-01T06:48:51.414Z,149.48
2022-12-01T06:51:23.878Z,149.27
2022-12-01T06:54:02.135Z,156.45
2022-12-01T06:56:35.028Z,157.30
2022-12-01T06:59:04.919Z,149.45
2022-12-01T07:01:35.272Z,156.25
2022-12-01T07:04:07.937Z,152.60
2022-12-01T07:06:40.403Z,155.45
2022-12-01T07:09:10.229Z,150.80
2022-12-01T07:11:40.051Z,154.68
2022-12-01T07:14:15.626Z,151.38
2022-12-01T07:16:45.513Z,162.25
2022-12-01T07:19:15.626Z,156.77
2022-12-01T07:21:48.078Z,146.25
2022-12-01T07:24:18.234Z,155.02
2022-12-01T07:26:48.238Z,156.88
2022-12-01T07:29:18.226Z,161.90
2022-12-01T07:31:48.050Z,154.10
2022-12-01T07:34:18.035Z,155.43
2022-12-01T07:36:50.450Z,156.23
2022-12-01T07:39:20.498Z,135.75
2022-12-01T07:41:50.912Z,142.38
2022-12-01T07:44:20.747Z,144.32
2022-12-01T07:46:50.609Z,142.93
2022-12-01T07:49:20.542Z,139.98
2022-12-01T07:51:53.047Z,139.40
2022-12-01T07:54:22.981Z,140.43
2022-12-01T07:56:53.053Z,143.05
2022-12-01T07:59:22.919Z,142.48
2022-12-01T08:01:52.823Z,146.57
2022-12-01T08:04:22.713Z,143.07
2022-12-01T08:06:55.163Z,143.85
2022-12-01T08:09:25.467Z,148.15
2022-12-01T08:11:55.307Z,139.52
2022-12-01T08:14:25.163Z,139.38
2022-12-01T08:16:55.007Z,156.63
2022-12-01T08:19:25.925Z,145.27
2022-12-01T08:21:58.365Z,155.60
2022-12-01T08:24:28.298Z,150.20
2022-12-01T08:26:58.179Z,159.68
2022-12-01T08:29:28.095Z,155.05
2022-12-01T08:32:00.607Z,148.55
2022-12-01T08:34:30.567Z,145.73
2022-12-01T08:37:02.989Z,144.73
2022-12-01T08:39:32.822Z,142.70
2022-12-01T08:42:02.962Z,135.93
2022-12-01T08:44:33.075Z,139.07
2022-12-01T08:47:02.933Z,134.70
2022-12-01T08:49:32.915Z,136.25
2022-12-01T08:52:05.385Z,119.40
2022-12-01T08:54:35.336Z,136.82
2022-12-01T08:57:05.182Z,125.75
2022-12-01T08:59:35.044Z,121.93
2022-12-01T09:02:07.045Z,118.90
2022-12-01T09:04:37.146Z,129.63
2022-12-01T09:07:15.141Z,114.00
2022-12-01T09:09:46.416Z,120.85
2022-12-01T09:12:16.815Z,119.72
2022-12-01T09:14:49.828Z,106.50
2022-12-01T09:17:20.607Z,112.45
2022-12-01T09:19:50.766Z,104.70
2022-12-01T09:22:23.456Z,112.70
2022-12-01T09:24:53.283Z,110.55
2022-12-01T09:27:23.230Z,111.22
2022-12-01T09:29:53.079Z,109.72
2022-12-01T09:32:22.917Z,102.93
2022-12-01T09:34:52.829Z,105.68
2022-12-01T09:37:25.250Z,104.13
2022-12-01T09:39:55.906Z,106.10
2022-12-01T09:42:32.195Z,107.07
2022-12-01T09:45:05.063Z,102.85
2022-12-01T09:47:40.121Z,103.30
2022-12-01T09:50:16.510Z,94.85
2022-12-01T09:52:53.210Z,96.55
2022-12-01T09:55:26.127Z,104.80
2022-12-01T09:57:58.762Z,107.57
2022-12-01T10:00:32.204Z,99.57
2022-12-01T10:03:08.506Z,100.60
2022-12-01T10:06:18.110Z,103.13
2022-12-01T10:08:45.234Z,99.35
2022-12-01T10:11:32.882Z,99.55
2022-12-01T10:14:03.335Z,92.20
2022-12-01T10:16:39.771Z,94.03
2022-12-01T10:19:17.629Z,93.65
2022-12-01T10:22:07.366Z,90.45
2022-12-01T10:24:56.601Z,86.85
2022-12-01T10:27:46.014Z,89.57
2022-12-01T10:30:28.119Z,92.90
2022-12-01T10:33:01.267Z,92.97
2022-12-01T10:35:37.172Z,96.82
2022-12-01T10:38:13.355Z,93.63
2022-12-01T10:40:47.432Z,91.57
2022-12-01T10:43:17.318Z,96.68
2022-12-01T10:45:48.028Z,86.30
2022-12-01T10:48:20.738Z,87.85
2022-12-01T10:50:53.001Z,93.60
2022-12-01T10:53:36.571Z,81.45
2022-12-01T10:56:17.345Z,81.22
2022-12-01T10:58:50.573Z,80.13
2022-12-01T11:01:25.701Z,75.93
2022-12-01T11:03:59.574Z,76.63
2022-12-01T11:06:32.620Z,86.00
2022-12-01T11:09:05.204Z,80.25
2022-12-01T11:11:40.613Z,76.57
2022-12-01T11:14:22.825Z,83.93
2022-12-01T11:16:55.030Z,76.10
2022-12-01T11:19:33.209Z,82.43
2022-12-01T11:22:08.826Z,84.05
2022-12-01T11:25:00.830Z,80.45
2022-12-01T11:27:38.855Z,77.28
2022-12-01T11:30:24.362Z,80.05
2022-12-01T11:32:58.277Z,72.53
2022-12-01T11:35:32.035Z,76.13
2022-12-01T11:38:28.728Z,73.35
2022-12-01T11:40:59.957Z,75.22
2022-12-01T11:43:36.653Z,76.88
2022-12-01T11:46:11.344Z,78.78
2022-12-01T11:51:30.237Z,79.10
2022-12-01T11:54:17.864Z,74.55
2022-12-01T11:57:17.349Z,78.97
2022-12-01T11:59:42.622Z,81.18
2022-12-01T12:02:30.578Z,76.40
2022-12-01T12:05:38.908Z,73.38
2022-12-01T12:08:20.299Z,70.55
2022-12-01T12:11:01.160Z,80.30
2022-12-01T12:14:00.110Z,81.38
2022-12-01T12:16:48.257Z,76.25
2022-12-01T12:20:06.727Z,77.40
2022-12-01T12:22:55.210Z,79.22
2022-12-01T12:25:34.738Z,73.40
2022-12-01T12:28:27.157Z,71.30
2022-12-01T12:31:08.426Z,75.82
2022-12-01T12:34:19.246Z,74.72
2022-12-01T12:37:02.613Z,78.75
2022-12-01T12:40:05.916Z,77.20
2022-12-01T12:42:48.860Z,67.53
2022-12-01T12:45:33.449Z,83.18
2022-12-01T12:48:18.416Z,78.97
2022-12-01T12:50:59.299Z,76.82
2022-12-01T12:53:34.697Z,75.57
2022-12-01T12:56:09.938Z,77.18
2022-12-01T12:58:44.698Z,76.60
